Aeroporto :
LOGIN :

Iscrizione | Disclaimer

   EN    FR    IT 

 










Sommario :    VFR   VFR Marginale   IFR   IFR Intensivo   IFR Molto Intensivo
Visibilità : 
Base nubi : 
>= 8 km
>= 3000ft
5 / 8 km
1000 / 3000 ft
1500m / 5 km
500 / 1000 ft
800 / 1500m
200 / 500 ft
< 800m
< 200 ft
Simboli :   Temporali  Nebbia  Neve Forte  Precipitazioni Forti  Vento > 20 kt
SIGMETs :   Varie  Temporali  Ghiacco  Turbolenza  Onda orograficha  Ceneri Vulcaniche







- Altitudine del aeroporto : 202 ft
- Codice IATA : LGW
- Carte del aeroporto


EGKK - London Gatwick

ULTIMO METAR :
  • 230220Z 00000KT 4500 BR BKN032 08/07 Q1029

METARs OBSOLETI :
  • 230150Z 21002KT 5000 BR BKN034 08/07 Q1029
  • 230120Z 24002KT 5000 HZ FEW031 07/07 Q1029
  • 230050Z 22005KT 6000 SCT033 08/07 Q1028
  • 230020Z 21004KT 7000 BKN031 09/08 Q1028
  • 222350Z 21005KT 8000 SCT025 OVC032 09/08 Q1028

TAF AMD TAF EGKK
Valido dal 23 a 02 ore il 24 a 06 ore UTC


230227Z 2302/2406 23005KT 9999 BKN023
PROB30
TEMPO 2302/2304 4000 BR NSC
BECMG 2303/2306 36010KT
TEMPO 2304/2312 6000 -RA BKN014
BECMG 2314/2317 06006KT CAVOK
Nessun NOTAM noto per questo aeroporto.



MetMap, La meteo Aeronautica in un colpo d'occhio ! - Copyright ORBIFLY Dicembre 2007 - Disclaimer

ORBIFLY MET'MAP TEAM :

Programmazione e sviluppo : Alexandra Zaïnal
Concezione e sviluppo : Baudouin d'Aumeries
Co-Programmazione e sviluppo : Marc-Olivier Méhu
Supporto tecnico e logistico : Manuel Goepfert
Aiuto per la traduzione : Arnaldo La Scala

Contatto : metmap@orbifly.com




FONTI E CREDITI :

   NOAA